Time;durP1;ratioP1;P1;durP2;ratioP2;P2;SDS_P1;SDS_P2;PMS_P1;PMS_P2;Temp;Humidity;BMP_temperature;BMP_pressure;BME280_temperature;BME280_humidity;BME280_pressure;Samples;Min_cycle;Max_cycle;Signal;HPM_P1;HPM_P2
2022/01/05 00:02:06;;;;;;;6.13;3.88;;;;;;;19.33;59.14;95255.16;10372096;28;20511;-22
2022/01/05 00:07:07;;;;;;;5.65;3.80;;;;;;;19.34;59.10;95246.69;10368545;28;20034;-22
2022/01/05 00:12:08;;;;;;;7.72;4.13;;;;;;;19.33;59.10;95245.81;10369326;28;20117;-22
2022/01/05 00:17:08;;;;;;;4.38;3.72;;;;;;;19.34;58.51;95244.94;10401902;28;20044;-22
2022/01/05 00:22:08;;;;;;;4.93;4.00;;;;;;;19.32;59.09;95230.63;10376161;28;20120;-22
2022/01/05 00:27:09;;;;;;;5.60;3.73;;;;;;;19.29;59.43;95218.88;10369173;28;20292;-22
2022/01/05 00:32:09;;;;;;;12.17;4.13;;;;;;;19.30;58.98;95214.63;10368447;28;20057;-22
2022/01/05 00:37:10;;;;;;;8.35;4.13;;;;;;;19.22;59.26;95202.16;10367302;28;20316;-21
2022/01/05 00:42:10;;;;;;;6.30;3.97;;;;;;;19.31;59.10;95216.28;10367969;28;20041;-22
2022/01/05 00:47:11;;;;;;;6.77;4.47;;;;;;;19.31;59.41;95217.13;10419046;28;20037;-22
2022/01/05 00:52:12;;;;;;;6.67;3.97;;;;;;;19.28;59.18;95226.53;10404527;28;20036;-22
2022/01/05 00:57:12;;;;;;;5.30;3.75;;;;;;;19.30;59.07;95229.84;10380940;28;20072;-22
2022/01/05 01:02:13;;;;;;;5.70;3.77;;;;;;;19.26;59.11;95228.28;10380608;28;20128;-23
2022/01/05 01:07:13;;;;;;;5.53;3.78;;;;;;;19.28;59.01;95234.13;10380275;28;20049;-22
2022/01/05 01:12:14;;;;;;;10.10;4.68;;;;;;;19.28;58.90;95227.38;10381222;28;20065;-22
2022/01/05 01:17:14;;;;;;;5.78;4.13;;;;;;;19.27;59.23;95237.56;10414945;28;20041;-22
2022/01/05 01:22:15;;;;;;;10.73;4.17;;;;;;;19.29;58.99;95233.25;10387141;28;20448;-22
2022/01/05 01:27:15;;;;;;;5.17;3.73;;;;;;;19.27;58.95;95251.06;10380068;28;20026;-22
2022/01/05 01:32:15;;;;;;;5.40;3.37;;;;;;;19.27;59.09;95237.56;10381183;28;20285;-22
2022/01/05 01:37:17;;;;;;;6.97;3.63;;;;;;;19.31;58.85;95241.66;10380462;28;20651;-22
2022/01/05 01:42:17;;;;;;;8.93;3.67;;;;;;;19.32;58.78;95230.63;10380792;28;20037;-22
2022/01/05 01:47:19;;;;;;;5.00;3.15;;;;;;;19.28;58.67;95240.06;10380057;28;20501;-22
2022/01/05 01:52:19;;;;;;;5.77;3.47;;;;;;;19.27;58.95;95242.63;10409942;28;20032;-22
2022/01/05 01:57:20;;;;;;;6.57;3.92;;;;;;;19.27;58.73;95224.88;10410038;28;20034;-22
2022/01/05 02:02:21;;;;;;;4.70;3.72;;;;;;;19.19;58.92;95216.63;10373316;28;20062;-22
2022/01/05 02:07:22;;;;;;;6.78;4.10;;;;;;;19.20;58.69;95228.44;10373363;28;20057;-21
2022/01/05 02:12:26;;;;;;;6.53;3.17;;;;;;;19.28;58.62;95235.00;10373384;28;20037;-22
2022/01/05 02:17:46;;;;;;;5.63;3.17;;;;;;;19.29;58.60;95239.19;10408327;28;20422;-23
2022/01/05 02:22:48;;;;;;;6.65;3.50;;;;;;;19.28;58.96;95235.00;10375665;28;20496;-22
2022/01/05 02:27:50;;;;;;;8.02;4.32;;;;;;;19.29;58.75;95248.50;10372206;28;20036;-22
2022/01/05 02:32:51;;;;;;;5.00;3.47;;;;;;;19.28;58.58;95256.97;10373316;28;20068;-22
2022/01/05 02:37:53;;;;;;;5.50;3.60;;;;;;;19.28;58.54;95260.38;10372539;28;20289;-22
2022/01/05 02:42:57;;;;;;;4.68;3.40;;;;;;;19.27;58.83;95280.69;10372693;28;20588;-22
2022/01/05 02:47:58;;;;;;;6.53;3.15;;;;;;;19.26;58.78;95273.94;10371723;28;20030;-22
2022/01/05 02:52:58;;;;;;;5.67;3.93;;;;;;;19.25;58.58;95267.22;10405774;28;20041;-21
2022/01/05 02:57:59;;;;;;;5.13;3.22;;;;;;;19.25;58.65;95275.66;10400317;28;20301;-21
2022/01/05 03:02:59;;;;;;;3.83;2.97;;;;;;;19.27;58.56;95262.94;10371589;28;20447;-23
2022/01/05 03:08:00;;;;;;;5.00;3.30;;;;;;;19.27;58.48;95270.53;10370696;28;20501;-22
2022/01/05 03:13:00;;;;;;;5.47;3.07;;;;;;;19.26;58.73;95274.75;10370834;28;20107;-22
2022/01/05 03:18:03;;;;;;;5.95;3.05;;;;;;;19.33;58.20;95255.16;10410560;28;20385;-22
2022/01/05 03:23:03;;;;;;;4.05;3.10;;;;;;;19.30;58.39;95281.44;10370646;28;20091;-22
2022/01/05 03:28:04;;;;;;;6.63;3.63;;;;;;;19.27;58.33;95293.38;10369721;28;20164;-22
2022/01/05 03:33:24;;;;;;;5.28;3.00;;;;;;;19.25;58.48;95300.19;10370455;28;20048;-22
2022/01/05 03:38:27;;;;;;;4.28;2.83;;;;;;;19.26;58.54;95328.06;10369802;28;20042;-22
2022/01/05 03:43:28;;;;;;;5.82;3.13;;;;;;;19.25;58.27;95330.66;10370106;28;20038;-22
2022/01/05 03:48:28;;;;;;;5.57;2.92;;;;;;;19.24;58.63;95331.53;10370169;28;20531;-22
2022/01/05 03:53:28;;;;;;;5.77;3.10;;;;;;;19.23;58.45;95339.97;10408156;28;20040;-22
2022/01/05 03:58:29;;;;;;;3.97;2.97;;;;;;;19.24;58.56;95331.53;10402796;28;20033;-22
2022/01/05 04:03:30;;;;;;;3.73;2.80;;;;;;;19.26;58.33;95339.91;10368902;28;20034;-22
2022/01/05 04:08:30;;;;;;;6.45;3.35;;;;;;;19.27;58.23;95344.94;10369682;28;20030;-22
2022/01/05 04:13:30;;;;;;;7.07;3.20;;;;;;;19.26;58.33;95330.59;10371861;28;20029;-22
2022/01/05 04:18:31;;;;;;;4.33;2.67;;;;;;;19.26;58.31;95343.28;10405067;28;20480;-22
2022/01/05 04:23:31;;;;;;;4.17;2.70;;;;;;;19.28;58.29;95353.41;10368298;28;20555;-21
2022/01/05 04:28:31;;;;;;;3.97;2.60;;;;;;;19.25;58.35;95363.63;10367972;28;20044;-22
2022/01/05 04:33:32;;;;;;;3.17;2.37;;;;;;;19.24;58.52;95377.19;10368537;28;20370;-22
2022/01/05 04:38:32;;;;;;;3.93;2.93;;;;;;;19.27;58.31;95383.00;10367594;28;20037;-22
2022/01/05 04:43:32;;;;;;;3.37;2.50;;;;;;;19.26;58.43;95377.97;10368427;28;20289;-22
2022/01/05 04:48:33;;;;;;;4.30;2.73;;;;;;;19.24;58.46;95387.34;10368105;28;20362;-22
2022/01/05 04:53:33;;;;;;;5.90;2.83;;;;;;;19.29;58.28;95398.19;10406889;28;20037;-22
2022/01/05 04:58:34;;;;;;;4.68;2.53;;;;;;;19.29;58.02;95401.59;10388520;28;20467;-21
2022/01/05 05:03:34;;;;;;;3.77;2.67;;;;;;;19.34;58.03;95411.63;10367610;28;20029;-22
2022/01/05 05:08:34;;;;;;;3.40;2.30;;;;;;;19.33;58.18;95431.06;10366378;28;20034;-22
2022/01/05 05:13:35;;;;;;;4.93;2.43;;;;;;;19.32;58.00;95477.63;10372184;28;20171;-22
2022/01/05 05:18:35;;;;;;;2.78;2.13;;;;;;;19.31;58.05;95491.19;10387100;28;20033;-22
2022/01/05 05:23:36;;;;;;;3.38;2.33;;;;;;;19.32;58.12;95500.47;10367338;28;20053;-22
2022/01/05 05:28:36;;;;;;;4.47;2.37;;;;;;;19.31;57.95;95511.50;10367642;28;20045;-22
2022/01/05 05:33:37;;;;;;;7.00;2.27;;;;;;;19.31;57.39;95530.94;10373668;28;20030;-22
2022/01/05 05:38:37;;;;;;;4.13;2.17;;;;;;;19.33;58.35;95541.91;10371460;28;20041;-22
2022/01/05 05:43:37;;;;;;;4.97;2.63;;;;;;;19.35;58.43;95557.94;10374554;28;20044;-23
2022/01/05 05:48:38;;;;;;;5.65;2.53;;;;;;;19.39;58.34;95567.13;10374049;28;20481;-22
2022/01/05 05:53:38;;;;;;;3.30;2.23;;;;;;;19.36;57.92;95580.75;10414048;28;20048;-21
2022/01/05 05:58:38;;;;;;;6.30;4.13;;;;;;;19.35;58.15;95588.38;10409330;28;20038;-22
2022/01/05 06:03:39;;;;;;;2.23;1.80;;;;;;;19.35;57.99;95593.47;10373137;28;20404;-22
2022/01/05 06:08:39;;;;;;;2.20;2.00;;;;;;;19.33;58.06;95605.34;10373038;28;20495;-22
2022/01/05 06:13:40;;;;;;;8.05;3.38;;;;;;;19.31;58.13;95610.47;10373864;28;20041;-21
2022/01/05 06:18:40;;;;;;;2.60;1.90;;;;;;;19.29;58.23;95624.03;10381432;28;20021;-21
2022/01/05 06:23:40;;;;;;;2.33;1.77;;;;;;;19.28;58.19;95633.38;10373029;28;20112;-22
2022/01/05 06:28:41;;;;;;;3.87;2.50;;;;;;;19.28;58.17;95653.66;10372804;28;20037;-22
2022/01/05 06:33:41;;;;;;;2.10;1.90;;;;;;;19.29;58.13;95664.63;10373127;28;20034;-22
2022/01/05 06:38:42;;;;;;;2.50;1.73;;;;;;;19.23;58.11;95674.91;10371989;28;20037;-22
2022/01/05 06:43:42;;;;;;;3.40;2.30;;;;;;;19.29;57.86;95687.47;10371243;28;20037;-21
2022/01/05 06:48:42;;;;;;;3.37;2.20;;;;;;;19.26;58.04;95705.31;10371601;28;20033;-22
2022/01/05 06:53:43;;;;;;;3.53;2.33;;;;;;;19.28;57.99;95713.72;10411736;28;20061;-22
2022/01/05 06:58:43;;;;;;;3.92;2.10;;;;;;;19.28;58.16;95723.88;10389656;28;20038;-22
2022/01/05 07:03:44;;;;;;;3.78;2.20;;;;;;;19.30;58.01;95732.28;10371272;28;20026;-22
2022/01/05 07:08:44;;;;;;;4.23;2.33;;;;;;;19.31;58.06;95741.56;10370289;28;20084;-22
2022/01/05 07:13:44;;;;;;;4.17;2.50;;;;;;;19.15;58.20;95728.31;10375972;28;20120;-22
2022/01/05 07:18:45;;;;;;;8.90;2.60;;;;;;;19.31;58.33;95767.78;10405353;28;20806;-22
2022/01/05 07:23:45;;;;;;;7.47;3.23;;;;;;;19.33;58.28;95768.59;10370157;28;20128;-22
2022/01/05 07:28:46;;;;;;;5.05;2.45;;;;;;;19.32;58.33;95782.16;10370023;28;20603;-22
2022/01/05 07:33:47;;;;;;;6.68;2.45;;;;;;;19.32;58.40;95801.59;10369900;28;20034;-22
2022/01/05 07:38:49;;;;;;;4.68;2.30;;;;;;;19.32;58.19;95814.28;10369544;28;20038;-22
2022/01/05 07:43:51;;;;;;;9.18;2.80;;;;;;;19.28;58.52;95816.09;10370044;28;20037;-22
2022/01/05 07:48:51;;;;;;;6.70;2.55;;;;;;;19.29;58.17;95832.13;10370385;28;20515;-22
2022/01/05 07:53:52;;;;;;;5.20;2.20;;;;;;;19.28;57.87;95845.69;10407765;28;20037;-22
2022/01/05 07:58:52;;;;;;;4.10;2.37;;;;;;;19.27;57.46;95851.63;10399775;28;20134;-22
2022/01/05 08:03:52;;;;;;;4.60;2.50;;;;;;;19.26;57.73;95867.72;10384546;28;20371;-22
2022/01/05 08:08:53;;;;;;;3.70;1.95;;;;;;;19.27;57.47;95885.44;10368589;28;20065;-22
2022/01/05 08:13:53;;;;;;;4.90;2.75;;;;;;;19.28;57.64;95886.28;10374993;28;20049;-21
2022/01/05 08:18:54;;;;;;;6.28;4.00;;;;;;;19.28;57.64;95906.59;10402158;28;20076;-21
2022/01/05 08:23:54;;;;;;;10.63;4.70;;;;;;;19.26;57.58;95910.84;10393868;28;20458;-22
2022/01/05 08:28:55;;;;;;;8.40;5.20;;;;;;;19.28;57.12;95914.19;10399307;28;20292;-22
2022/01/05 08:33:56;;;;;;;8.82;5.60;;;;;;;19.29;56.78;95929.41;10393891;28;20932;-22
2022/01/05 08:38:57;;;;;;;8.07;4.88;;;;;;;19.27;56.88;95937.91;10402023;28;20033;-22
2022/01/05 08:43:57;;;;;;;7.67;4.23;;;;;;;19.25;57.03;95937.91;10397022;28;20034;-22
2022/01/05 08:48:58;;;;;;;8.45;4.07;;;;;;;19.28;56.74;95939.56;10398286;28;20821;-22
2022/01/05 08:53:58;;;;;;;5.68;4.10;;;;;;;19.25;56.65;95954.88;10404775;28;20824;-22
2022/01/05 08:58:59;;;;;;;7.78;5.00;;;;;;;19.25;56.61;95958.22;10392370;28;20041;-22
2022/01/05 09:03:59;;;;;;;5.40;3.80;;;;;;;19.20;55.06;95967.63;10399972;28;20585;-22
2022/01/05 09:08:59;;;;;;;7.10;3.30;;;;;;;18.83;49.67;95978.28;10411121;28;20382;-23
2022/01/05 09:14:00;;;;;;;7.63;3.70;;;;;;;18.90;48.54;95989.97;10406524;28;20040;-22
2022/01/05 09:19:00;;;;;;;10.60;4.53;;;;;;;19.08;49.20;95987.22;10409710;28;20052;-22
2022/01/05 09:24:02;;;;;;;7.55;4.20;;;;;;;19.18;51.05;96001.44;10408429;28;20037;-22
2022/01/05 09:29:03;;;;;;;11.90;5.20;;;;;;;19.21;51.72;96006.50;10408118;28;20496;-22
2022/01/05 09:34:04;;;;;;;7.50;4.32;;;;;;;19.19;51.91;96019.22;10375172;28;20037;-22
2022/01/05 09:44:44;;;;;;;9.20;4.70;;;;;;;19.18;52.99;96042.06;10394611;28;20042;-23
2022/01/05 09:50:03;;;;;;;6.97;4.97;;;;;;;19.21;53.65;96050.50;10380491;28;20044;-27
2022/01/05 09:55:05;;;;;;;8.60;5.60;;;;;;;19.21;53.81;96082.63;10414407;28;20034;-22
2022/01/05 10:00:08;;;;;;;11.40;6.60;;;;;;;19.23;54.10;96079.22;10392417;28;20026;-23
2022/01/05 10:05:14;;;;;;;9.00;5.80;;;;;;;19.24;54.35;96085.97;10373451;28;20044;-22
2022/01/05 10:10:14;;;;;;;13.50;6.85;;;;;;;19.20;54.53;96086.88;10372549;28;20034;-23
2022/01/05 10:15:16;;;;;;;11.20;6.65;;;;;;;19.23;54.59;96096.13;10390944;28;20037;-22
2022/01/05 10:20:21;;;;;;;12.45;5.75;;;;;;;19.20;53.97;96091.13;10394769;28;20460;-22
2022/01/05 10:25:23;;;;;;;10.90;6.43;;;;;;;19.22;55.03;96100.38;10372754;28;20044;-23
2022/01/05 10:30:38;;;;;;;11.18;7.00;;;;;;;19.21;55.09;96102.94;10372511;28;20432;-22
2022/01/05 10:35:38;;;;;;;13.98;7.47;;;;;;;19.20;55.32;96101.25;10372536;28;20034;-23
2022/01/05 10:40:40;;;;;;;13.60;7.10;;;;;;;19.20;55.26;96102.13;10372185;28;20033;-23
2022/01/05 10:45:42;;;;;;;11.13;6.13;;;;;;;19.31;55.31;96104.50;10372170;28;20728;-22
2022/01/05 10:50:44;;;;;;;10.95;6.68;;;;;;;19.27;55.33;96100.31;10388205;28;20402;-22
2022/01/05 10:55:45;;;;;;;11.07;6.07;;;;;;;19.28;52.43;96102.00;10412484;28;20079;-22
2022/01/05 11:00:52;;;;;;;8.90;5.32;;;;;;;19.24;51.88;96103.75;10384356;28;20041;-23
2022/01/05 11:05:59;;;;;;;;;;;;;;;19.26;53.81;96113.88;10371640;28;20046;-23
2022/01/05 11:10:59;;;;;;;19.65;7.82;;;;;;;19.27;54.31;96107.94;10371398;28;19983;-23
2022/01/05 11:16:00;;;;;;;11.50;6.15;;;;;;;19.03;48.49;96098.06;10395188;28;20077;-22
2022/01/05 11:21:04;;;;;;;13.77;5.30;;;;;;;18.87;46.96;96112.63;10387488;28;20045;-21
2022/01/05 11:26:04;;;;;;;10.10;4.28;;;;;;;18.80;46.55;96110.16;10370903;28;20277;-22
2022/01/05 11:31:07;;;;;;;17.73;5.60;;;;;;;19.01;49.58;96109.94;10369968;28;20034;-22
2022/01/05 11:36:07;;;;;;;9.80;5.38;;;;;;;19.08;50.74;96103.94;10370618;28;20033;-22
2022/01/05 11:41:10;;;;;;;10.93;5.28;;;;;;;19.15;51.77;96115.66;10369795;28;20048;-22
2022/01/05 11:46:15;;;;;;;15.30;6.15;;;;;;;19.22;52.15;96119.84;10370046;28;20079;-22
2022/01/05 11:51:29;;;;;;;12.95;5.82;;;;;;;19.23;52.83;96111.38;10389742;28;20037;-22
2022/01/05 11:56:40;;;;;;;11.82;5.43;;;;;;;19.20;53.24;96108.88;10409739;28;20159;-22
2022/01/05 12:01:41;;;;;;;10.00;5.82;;;;;;;19.21;53.51;96101.25;10370128;28;20049;-22
2022/01/05 12:06:44;;;;;;;9.95;4.85;;;;;;;19.22;53.87;96113.06;10368621;28;20064;-23
2022/01/05 12:11:45;;;;;;;8.00;5.20;;;;;;;19.23;54.10;96116.44;10368451;28;20485;-23
2022/01/05 12:17:05;;;;;;;14.43;5.60;;;;;;;19.23;54.23;96106.28;10398215;28;20033;-22
2022/01/05 12:22:21;;;;;;;10.05;5.07;;;;;;;19.26;54.35;96111.34;10368241;28;20783;-23
2022/01/05 12:27:33;;;;;;;8.73;4.80;;;;;;;19.04;53.96;96120.03;10368320;28;20500;-23
2022/01/05 12:32:38;;;;;;;10.45;4.85;;;;;;;19.17;54.50;96126.66;10368587;28;20030;-23
2022/01/05 12:37:42;;;;;;;10.25;4.65;;;;;;;19.21;54.78;96130.84;10368740;28;20037;-23
2022/01/05 12:42:42;;;;;;;11.13;5.88;;;;;;;19.20;55.20;96137.66;10371557;28;20480;-22
2022/01/05 12:47:42;;;;;;;8.97;5.20;;;;;;;19.22;55.12;96135.06;10373656;28;20096;-22
2022/01/05 12:52:43;;;;;;;11.23;4.93;;;;;;;19.23;55.26;96141.81;10400107;28;20034;-22
2022/01/05 12:57:53;;;;;;;9.05;4.63;;;;;;;19.21;55.38;96138.47;10402952;28;20030;-23
2022/01/05 13:02:54;;;;;;;6.15;4.40;;;;;;;19.21;55.53;96159.63;10367408;28;20052;-24
2022/01/05 13:07:54;;;;;;;8.27;4.70;;;;;;;19.22;55.79;96168.06;10367131;28;20037;-24
2022/01/05 13:12:56;;;;;;;6.65;4.50;;;;;;;19.22;55.51;96161.28;10367228;28;20109;-24
2022/01/05 13:17:57;;;;;;;7.55;4.65;;;;;;;19.24;55.69;96171.44;10406534;28;20037;-22
2022/01/05 13:22:59;;;;;;;6.07;4.35;;;;;;;19.23;55.68;96167.19;10368854;28;20033;-22
2022/01/05 13:28:04;;;;;;;8.23;4.88;;;;;;;19.25;55.77;96170.56;10366929;28;20034;-23
2022/01/05 13:33:06;;;;;;;8.55;4.20;;;;;;;19.22;56.15;96165.50;10367580;28;20046;-22
2022/01/05 13:38:12;;;;;;;7.43;4.68;;;;;;;19.25;56.34;96168.03;10406434;28;20037;-22
2022/01/05 13:43:15;;;;;;;7.55;4.85;;;;;;;19.25;56.24;96168.03;10404791;28;20148;-23
2022/01/05 13:48:27;;;;;;;9.77;5.32;;;;;;;19.23;56.34;96175.66;10366097;28;20050;-22
2022/01/05 13:53:29;;;;;;;8.63;5.85;;;;;;;19.21;56.66;96184.13;10409515;28;20148;-23
2022/01/05 13:58:32;;;;;;;9.82;5.82;;;;;;;19.24;56.74;96184.13;10400031;28;20084;-23
2022/01/05 14:03:36;;;;;;;10.13;6.57;;;;;;;19.23;56.75;96185.81;10374007;28;20508;-22
2022/01/05 14:08:39;;;;;;;13.10;6.95;;;;;;;19.25;56.74;96178.19;10373334;28;20033;-23
2022/01/05 14:13:46;;;;;;;12.05;6.65;;;;;;;19.16;56.82;96165.56;10377950;28;20033;-22
2022/01/05 14:18:47;;;;;;;12.70;8.48;;;;;;;19.22;57.06;96184.13;10408654;28;20503;-23
2022/01/05 14:23:47;;;;;;;15.95;9.30;;;;;;;19.19;56.93;96175.72;10372699;28;20124;-22
2022/01/05 14:28:48;;;;;;;17.73;10.43;;;;;;;19.28;57.06;96189.16;10373141;28;20037;-22
2022/01/05 14:33:50;;;;;;;20.13;11.67;;;;;;;19.29;56.92;96197.59;10373496;28;20034;-22
2022/01/05 14:38:56;;;;;;;16.35;9.75;;;;;;;19.28;56.66;96208.59;10371785;28;20125;-22
2022/01/05 14:44:22;;;;;;;11.90;7.75;;;;;;;19.21;55.42;96209.53;10372204;28;20488;-23
2022/01/05 14:49:24;;;;;;;15.52;9.75;;;;;;;19.20;56.83;96212.91;10376667;28;20072;-22
2022/01/05 14:54:29;;;;;;;21.27;11.88;;;;;;;19.19;57.04;96206.16;10413569;28;20115;-22
2022/01/05 14:59:29;;;;;;;20.25;11.93;;;;;;;19.22;57.02;96219.66;10399114;28;20042;-26
2022/01/05 15:04:30;;;;;;;17.80;10.07;;;;;;;19.23;56.99;96221.34;10397119;28;20041;-22
2022/01/05 15:09:30;;;;;;;17.73;11.50;;;;;;;19.20;57.27;96229.00;10411414;28;20018;-23
2022/01/05 15:14:31;;;;;;;16.02;10.85;;;;;;;19.17;57.40;96234.06;10395558;28;20109;-23
2022/01/05 15:19:32;;;;;;;18.90;10.07;;;;;;;19.18;57.14;96234.91;10399338;28;20121;-23
2022/01/05 15:24:32;;;;;;;18.63;10.67;;;;;;;19.19;57.20;96239.16;10370228;28;20113;-22
2022/01/05 15:29:33;;;;;;;18.05;11.05;;;;;;;19.19;56.70;96237.44;10370145;28;20038;-22
2022/01/05 15:34:33;;;;;;;21.75;11.35;;;;;;;19.21;56.85;96237.44;10374355;28;20038;-23
2022/01/05 15:39:34;;;;;;;17.20;11.63;;;;;;;19.18;57.13;96235.72;10411341;28;20034;-24
2022/01/05 15:44:34;;;;;;;20.85;11.15;;;;;;;19.21;57.06;96240.81;10382029;28;20382;-23
2022/01/05 15:49:35;;;;;;;16.27;11.17;;;;;;;19.25;56.86;96244.19;10375504;28;20447;-22
2022/01/05 15:54:40;;;;;;;17.77;10.82;;;;;;;19.24;56.98;96252.66;10409823;28;20033;-22
2022/01/05 16:04:59;;;;;;;15.90;10.40;;;;;;;19.26;56.89;96268.69;10410959;28;20535;-23
2022/01/05 16:10:00;;;;;;;15.57;9.40;;;;;;;19.27;56.91;96267.84;10422119;28;20147;-23
2022/01/05 16:15:00;;;;;;;17.52;10.38;;;;;;;19.24;56.95;96270.41;10413610;28;20029;-23
2022/01/05 16:20:01;;;;;;;19.52;12.13;;;;;;;19.23;57.19;96268.69;10429793;28;20124;-23
2022/01/05 16:25:01;;;;;;;16.65;11.88;;;;;;;19.25;57.33;96274.63;10429579;28;20191;-23
2022/01/05 16:30:03;;;;;;;20.87;11.07;;;;;;;19.29;56.35;96261.03;10411317;28;20036;-23
2022/01/05 16:35:08;;;;;;;19.95;11.85;;;;;;;19.31;56.02;96262.72;10410109;28;20302;-23
2022/01/05 16:40:09;;;;;;;14.63;10.00;;;;;;;19.37;55.91;96266.88;10433781;28;20047;-22
2022/01/05 16:45:09;;;;;;;16.75;9.05;;;;;;;19.33;53.90;96273.69;10420570;28;20035;-23
2022/01/05 16:50:09;;;;;;;17.65;9.88;;;;;;;19.29;55.36;96271.19;10413701;28;20032;-22
2022/01/05 16:55:15;;;;;;;18.43;9.83;;;;;;;19.25;55.08;96272.09;10416353;28;20026;-22
2022/01/05 17:00:25;;;;;;;16.00;9.23;;;;;;;19.25;54.10;96282.25;10413051;28;20283;-23
2022/01/05 17:05:26;;;;;;;14.07;8.07;;;;;;;19.25;54.92;96284.78;10393061;28;20120;-23
2022/01/05 17:10:27;;;;;;;17.20;8.95;;;;;;;19.30;54.97;96285.56;10367441;28;20485;-23
2022/01/05 17:15:27;;;;;;;27.10;9.02;;;;;;;19.31;55.14;96297.38;10406863;28;20041;-23
2022/01/05 17:20:28;;;;;;;14.50;8.20;;;;;;;19.29;55.04;96301.66;10377483;28;20046;-23
2022/01/05 17:25:28;;;;;;;13.83;8.23;;;;;;;19.33;55.12;96305.84;10366940;28;20035;-23
2022/01/05 17:30:29;;;;;;;13.98;7.57;;;;;;;19.31;55.30;96312.63;10374299;28;20289;-23
2022/01/05 17:35:31;;;;;;;12.73;8.30;;;;;;;19.29;55.45;96324.50;10374574;28;20030;-22
2022/01/05 17:40:32;;;;;;;15.82;7.97;;;;;;;19.30;55.60;96328.72;10374339;28;20030;-23
2022/01/05 17:45:32;;;;;;;10.52;7.15;;;;;;;19.23;55.77;96319.47;10374610;28;20409;-22
2022/01/05 17:50:34;;;;;;;12.85;7.63;;;;;;;19.27;56.04;96326.22;10381132;28;20079;-23
2022/01/05 17:55:38;;;;;;;12.30;7.70;;;;;;;19.30;55.90;96328.72;10410875;28;20038;-24
2022/01/05 18:00:42;;;;;;;14.07;7.40;;;;;;;19.29;55.86;96325.34;10383182;28;20049;-23
2022/01/05 18:05:43;;;;;;;14.93;7.38;;;;;;;19.30;55.66;96323.63;10390213;28;20034;-22
2022/01/05 18:10:43;;;;;;;11.85;7.28;;;;;;;19.27;56.00;96327.03;10393954;28;20559;-23
2022/01/05 18:15:44;;;;;;;12.50;7.17;;;;;;;19.32;55.84;96329.53;10415044;28;20056;-24
2022/01/05 18:20:44;;;;;;;15.30;7.70;;;;;;;19.32;55.66;96339.69;10391943;28;20295;-22
2022/01/05 18:25:44;;;;;;;10.48;6.65;;;;;;;19.29;55.83;96339.72;10376976;28;20079;-22
2022/01/05 18:30:45;;;;;;;11.50;6.83;;;;;;;19.28;55.76;96338.03;10393712;28;20033;-23
2022/01/05 18:35:45;;;;;;;11.80;8.15;;;;;;;19.32;55.87;96340.53;10399829;28;20037;-23
2022/01/05 18:40:46;;;;;;;14.17;7.50;;;;;;;19.28;56.15;96348.19;10390477;28;20071;-22
2022/01/05 18:45:47;;;;;;;13.38;6.43;;;;;;;19.24;56.12;96349.09;10402788;28;20040;-23
2022/01/05 18:50:47;;;;;;;16.63;7.05;;;;;;;19.27;56.36;96352.41;10396745;28;20033;-23
2022/01/05 18:55:47;;;;;;;18.70;6.67;;;;;;;19.30;56.14;96357.47;10408565;28;20064;-23
2022/01/05 19:00:48;;;;;;;11.77;6.70;;;;;;;19.29;56.22;96360.03;10403445;28;20073;-23
2022/01/05 19:05:51;;;;;;;11.50;6.05;;;;;;;19.33;55.94;96375.22;10403566;28;20037;-23
2022/01/05 19:10:51;;;;;;;9.95;6.20;;;;;;;19.33;55.97;96366.78;10415144;28;20041;-23
2022/01/05 19:15:52;;;;;;;10.65;6.97;;;;;;;19.31;55.93;96365.91;10405033;28;20033;-23
2022/01/05 19:20:52;;;;;;;12.47;6.87;;;;;;;19.28;55.92;96369.34;10406225;28;20048;-23
2022/01/05 19:25:53;;;;;;;11.43;5.47;;;;;;;19.28;56.36;96378.66;10407149;28;20277;-23
2022/01/05 19:30:53;;;;;;;14.43;6.43;;;;;;;19.31;56.19;96376.06;10392129;28;20295;-22
2022/01/05 19:35:54;;;;;;;10.13;6.35;;;;;;;19.25;56.27;96376.16;10396276;28;20399;-23
2022/01/05 19:40:54;;;;;;;9.30;6.20;;;;;;;19.28;55.94;96381.19;10406443;28;20045;-24
2022/01/05 19:45:56;;;;;;;10.13;6.50;;;;;;;19.26;56.07;96373.56;10404335;28;20315;-23
2022/01/05 19:51:11;;;;;;;9.35;5.53;;;;;;;19.26;56.01;96375.28;10397641;28;20064;-23
2022/01/05 19:56:20;;;;;;;11.77;6.53;;;;;;;19.30;55.62;96392.16;10405663;28;20091;-24
2022/01/05 20:01:22;;;;;;;9.48;5.95;;;;;;;19.30;55.82;96403.16;10398669;28;20447;-27
2022/01/05 20:06:23;;;;;;;8.38;5.85;;;;;;;19.31;55.91;96404.00;10401551;28;20076;-24
2022/01/05 20:11:23;;;;;;;9.60;6.53;;;;;;;19.32;55.82;96395.53;10405609;28;20644;-23
2022/01/05 20:16:24;;;;;;;8.23;4.90;;;;;;;19.29;55.90;96398.09;10398023;28;20041;-23
2022/01/05 20:21:25;;;;;;;9.88;6.13;;;;;;;19.30;56.00;96399.78;10397788;28;20046;-22
2022/01/05 20:26:25;;;;;;;9.88;5.70;;;;;;;19.30;56.11;96397.25;10399715;28;20057;-23
2022/01/05 20:31:26;;;;;;;7.72;5.60;;;;;;;19.26;55.92;96382.91;10396430;28;20036;-22
2022/01/05 20:36:26;;;;;;;8.40;5.47;;;;;;;19.29;56.07;96413.31;10387737;28;20118;-23
2022/01/05 20:41:27;;;;;;;7.90;4.93;;;;;;;19.30;56.03;96413.31;10404720;28;20031;-22
2022/01/05 20:46:27;;;;;;;7.70;5.57;;;;;;;19.30;56.03;96420.94;10390422;28;20060;-22
2022/01/05 20:51:28;;;;;;;8.47;5.40;;;;;;;19.29;56.20;96416.72;10395861;28;20540;-22
2022/01/05 20:56:28;;;;;;;8.17;5.17;;;;;;;19.29;56.19;96431.09;10399028;28;20303;-22
2022/01/05 21:01:30;;;;;;;9.80;4.57;;;;;;;19.27;54.76;96428.56;10393366;28;20726;-23
2022/01/05 21:06:30;;;;;;;10.52;5.53;;;;;;;19.27;56.40;96426.03;10405675;28;20300;-22
2022/01/05 21:11:31;;;;;;;6.97;4.73;;;;;;;19.28;56.20;96434.50;10405937;28;20033;-21
2022/01/05 21:16:31;;;;;;;8.80;5.15;;;;;;;19.24;56.48;96432.84;10401150;28;20496;-22
2022/01/05 21:21:32;;;;;;;7.80;5.93;;;;;;;19.24;56.43;96433.66;10403674;28;20363;-22
2022/01/05 21:26:32;;;;;;;7.50;4.17;;;;;;;19.29;56.31;96434.50;10406583;28;20047;-22
2022/01/05 21:31:32;;;;;;;10.20;5.17;;;;;;;19.32;56.37;96438.66;10397107;28;20411;-22
2022/01/05 21:36:33;;;;;;;12.47;5.13;;;;;;;19.29;56.45;96434.50;10409920;28;20743;-22
2022/01/05 21:41:34;;;;;;;7.13;4.28;;;;;;;19.29;56.30;96436.16;10410014;28;20492;-22
2022/01/05 21:46:34;;;;;;;5.90;4.53;;;;;;;19.28;56.49;96439.56;10397037;28;20449;-21
2022/01/05 21:51:34;;;;;;;9.30;5.10;;;;;;;19.25;56.51;96445.50;10394318;28;20090;-22
2022/01/05 21:56:35;;;;;;;7.23;4.73;;;;;;;19.25;56.53;96440.44;10397605;28;20041;-23
2022/01/05 22:01:38;;;;;;;8.70;4.85;;;;;;;19.28;56.30;96442.09;10401502;28;20712;-22
2022/01/05 22:06:38;;;;;;;7.68;4.25;;;;;;;19.24;56.36;96443.00;10402529;28;20041;-21
2022/01/05 22:11:39;;;;;;;7.43;4.63;;;;;;;19.26;56.31;96438.75;10414259;28;20630;-23
2022/01/05 22:16:40;;;;;;;8.55;4.68;;;;;;;19.24;56.29;96437.91;10412291;28;20041;-23
2022/01/05 22:21:40;;;;;;;9.73;4.65;;;;;;;19.29;56.17;96433.63;10404601;28;20047;-22
2022/01/05 22:26:41;;;;;;;8.13;4.82;;;;;;;19.32;55.99;96441.22;10399677;28;20037;-23
2022/01/05 22:31:41;;;;;;;6.70;4.20;;;;;;;19.29;56.15;96456.47;10390961;28;20037;-24
2022/01/05 22:36:41;;;;;;;13.13;5.10;;;;;;;19.26;56.21;96451.44;10378993;28;20508;-22
2022/01/05 22:41:42;;;;;;;6.43;4.30;;;;;;;19.27;56.23;96448.03;10396938;28;20060;-22
2022/01/05 22:46:42;;;;;;;7.57;4.57;;;;;;;19.30;56.16;96448.00;10404190;28;20117;-22
2022/01/05 22:51:43;;;;;;;11.40;4.72;;;;;;;19.28;56.47;96464.94;10402479;28;20030;-22
2022/01/05 22:56:43;;;;;;;6.75;4.45;;;;;;;19.26;56.40;96462.41;10405872;28;20103;-22
2022/01/05 23:01:46;;;;;;;10.00;5.07;;;;;;;19.25;56.39;96464.97;10398403;28;20034;-22
2022/01/05 23:06:46;;;;;;;9.05;4.72;;;;;;;19.25;56.53;96467.53;10371714;28;20293;-22
2022/01/05 23:11:48;;;;;;;5.90;3.67;;;;;;;19.30;56.44;96473.38;10372590;28;20030;-21
2022/01/05 23:16:49;;;;;;;8.57;3.92;;;;;;;19.27;56.29;96474.25;10401528;28;20286;-22
2022/01/05 23:21:49;;;;;;;5.05;4.15;;;;;;;19.29;56.43;96484.41;10381574;28;20030;-22
2022/01/05 23:26:50;;;;;;;9.23;4.77;;;;;;;19.27;56.34;96475.97;10369865;28;20063;-22